Time;durP1;ratioP1;P1;durP2;ratioP2;P2;SDS_P1;SDS_P2;PMS_P1;PMS_P2;Temp;Humidity;BMP_temperature;BMP_pressure;BME280_temperature;BME280_humidity;BME280_pressure;Samples;Min_cycle;Max_cycle;Signal;HPM_P1;HPM_P2
2022/08/05 00:00:24;;;;;;;;;;;17.10;99.90;;;;;;6196156;23;19942;-76
2022/08/05 00:02:49;;;;;;;;;;;17.10;99.90;;;;;;6220525;23;19920;-77
2022/08/05 00:05:15;;;;;;;;;;;17.10;99.90;;;;;;6222631;23;20346;-78
2022/08/05 00:07:40;;;;;;;;;;;17.10;99.90;;;;;;6202441;23;19926;-76
2022/08/05 00:10:06;;;;;;;;;;;17.10;99.90;;;;;;6202136;23;19927;-78
2022/08/05 00:12:31;;;;;;;;;;;17.10;99.90;;;;;;6195671;23;19920;-79
2022/08/05 00:14:57;;;;;;;;;;;17.10;99.90;;;;;;6195734;23;19922;-76
2022/08/05 00:17:23;;;;;;;;;;;17.10;99.90;;;;;;6221396;23;20242;-77
2022/08/05 00:19:48;;;;;;;;;;;17.10;99.90;;;;;;6196401;23;19920;-76
2022/08/05 00:22:14;;;;;;;;;;;17.10;99.90;;;;;;6221479;23;19992;-77
2022/08/05 00:24:39;;;;;;;;;;;17.10;99.90;;;;;;6220995;23;19974;-78
2022/08/05 00:27:06;;;;;;;;;;;17.10;99.90;;;;;;6196937;23;19919;-78
2022/08/05 00:29:31;;;;;;;;;;;17.20;99.90;;;;;;6221261;23;20247;-79
2022/08/05 00:31:57;;;;;;;;;;;17.10;99.90;;;;;;6220566;23;19927;-77
2022/08/05 00:34:22;;;;;;;;;;;17.10;99.90;;;;;;6220407;23;19915;-77
2022/08/05 00:36:48;;;;;;;;;;;17.10;99.90;;;;;;6194792;23;19943;-78
2022/08/05 00:39:14;;;;;;;;;;;17.10;99.90;;;;;;6194986;23;19916;-76
2022/08/05 00:41:39;;;;;;;;;;;17.10;99.90;;;;;;6220500;23;19984;-79
2022/08/05 00:44:05;;;;;;;;;;;17.00;99.90;;;;;;6196187;23;19964;-78
2022/08/05 00:46:31;;;;;;;;;;;17.00;99.90;;;;;;6220884;23;19919;-79
2022/08/05 00:48:56;;;;;;;;;;;17.00;99.90;;;;;;6195760;23;19915;-77
2022/08/05 00:51:22;;;;;;;;;;;17.00;99.90;;;;;;6195857;23;19991;-77
2022/08/05 00:53:48;;;;;;;;;;;17.00;99.90;;;;;;6220753;23;19970;-77
2022/08/05 00:56:14;;;;;;;;;;;17.00;99.90;;;;;;6195528;23;20297;-78
2022/08/05 00:58:40;;;;;;;;;;;17.00;99.90;;;;;;6195832;23;19965;-78
2022/08/05 01:01:06;;;;;;;;;;;17.00;99.90;;;;;;6195982;23;19963;-77
2022/08/05 01:03:31;;;;;;;;;;;16.90;99.90;;;;;;6220594;23;20333;-78
2022/08/05 01:05:57;;;;;;;;;;;16.90;99.90;;;;;;6195615;23;19926;-78
2022/08/05 01:08:22;;;;;;;;;;;16.90;99.90;;;;;;6219468;23;20003;-77
2022/08/05 01:10:53;;;;;;;;;;;16.90;99.90;;;;;;6195493;23;19915;-78
2022/08/05 01:13:22;;;;;;;;;;;16.80;99.90;;;;;;6220087;23;20219;-78
2022/08/05 01:15:52;;;;;;;;;;;16.80;99.90;;;;;;6195277;22;19969;-78
2022/08/05 01:18:21;;;;;;;;;;;16.80;99.90;;;;;;6195908;23;19942;-77
2022/08/05 01:20:59;;;;;;;;;;;16.80;99.90;;;;;;6195273;23;19927;-78
2022/08/05 01:23:24;;;;;;;;;;;16.80;99.90;;;;;;6195855;23;19919;-78
2022/08/05 01:25:59;;;;;;;;;;;16.80;99.90;;;;;;6195396;23;19926;-80
2022/08/05 01:28:28;;;;;;;;;;;16.80;99.90;;;;;;6221048;23;19954;-79
2022/08/05 01:30:58;;;;;;;;;;;16.80;99.90;;;;;;6195981;23;19972;-79
2022/08/05 01:33:28;;;;;;;;;;;16.80;99.90;;;;;;6220945;23;19943;-78
2022/08/05 01:35:55;;;;;;;;;;;16.80;99.90;;;;;;6220014;23;19915;-79
2022/08/05 01:38:22;;;;;;;;;;;16.80;99.90;;;;;;6195744;23;19970;-78
2022/08/05 01:40:47;;;;;;;;;;;16.80;99.90;;;;;;6227296;23;19990;-76
2022/08/05 01:43:14;;;;;;;;;;;16.80;99.90;;;;;;6226812;23;19922;-77
2022/08/05 01:45:40;;;;;;;;;;;16.70;99.90;;;;;;6194954;22;19924;-79
2022/08/05 01:48:06;;;;;;;;;;;16.70;99.90;;;;;;6195234;23;19942;-80
2022/08/05 01:50:36;;;;;;;;;;;16.70;99.90;;;;;;6194429;23;19955;-78
2022/08/05 01:53:03;;;;;;;;;;;16.60;99.90;;;;;;6195277;23;19931;-78
2022/08/05 01:55:31;;;;;;;;;;;16.60;99.90;;;;;;6194421;22;19919;-79
2022/08/05 01:57:57;;;;;;;;;;;16.50;99.90;;;;;;6194853;23;19919;-78
2022/08/05 02:00:22;;;;;;;;;;;16.50;99.90;;;;;;6195298;23;19998;-78
2022/08/05 02:02:54;;;;;;;;;;;16.40;99.90;;;;;;6220175;23;20279;-78
2022/08/05 02:05:21;;;;;;;;;;;16.40;99.90;;;;;;6195202;23;20346;-78
2022/08/05 02:07:47;;;;;;;;;;;16.40;99.90;;;;;;6219787;23;19920;-79
2022/08/05 02:10:12;;;;;;;;;;;16.40;99.90;;;;;;6220364;23;19943;-78
2022/08/05 02:12:53;;;;;;;;;;;16.40;99.90;;;;;;6195330;23;20334;-79
2022/08/05 02:15:27;;;;;;;;;;;16.40;99.90;;;;;;6195672;23;19926;-77
2022/08/05 02:18:21;;;;;;;;;;;16.40;99.90;;;;;;6220019;23;20204;-79
2022/08/05 02:20:55;;;;;;;;;;;16.40;99.90;;;;;;6149973;23;20277;-77
2022/08/05 02:23:23;;;;;;;;;;;16.40;99.90;;;;;;6194840;23;20076;-78
2022/08/05 02:25:49;;;;;;;;;;;16.40;99.90;;;;;;6194639;22;19920;-78
2022/08/05 02:28:16;;;;;;;;;;;16.50;99.90;;;;;;6195478;23;19920;-79
2022/08/05 02:30:44;;;;;;;;;;;16.50;99.90;;;;;;6220367;23;19982;-77
2022/08/05 02:33:12;;;;;;;;;;;16.50;99.90;;;;;;6219819;23;19926;-78
2022/08/05 02:35:38;;;;;;;;;;;16.50;99.90;;;;;;6194528;22;20289;-78
2022/08/05 02:38:05;;;;;;;;;;;16.50;99.90;;;;;;6195117;23;20063;-77
2022/08/05 02:40:31;;;;;;;;;;;16.40;99.90;;;;;;6194630;23;19923;-78
2022/08/05 02:42:57;;;;;;;;;;;16.50;99.90;;;;;;6193297;23;19920;-80
2022/08/05 02:45:24;;;;;;;;;;;16.50;99.90;;;;;;6194391;23;19969;-78
2022/08/05 02:47:51;;;;;;;;;;;16.50;99.90;;;;;;6219709;23;19916;-78
2022/08/05 02:50:17;;;;;;;;;;;16.40;99.90;;;;;;6194665;23;19916;-78
2022/08/05 02:52:44;;;;;;;;;;;16.50;99.90;;;;;;6220178;23;19915;-77
2022/08/05 02:55:10;;;;;;;;;;;16.50;99.90;;;;;;6219837;23;19927;-78
2022/08/05 02:57:37;;;;;;;;;;;16.50;99.90;;;;;;6219564;23;19920;-79
2022/08/05 03:00:03;;;;;;;;;;;16.50;99.90;;;;;;6195068;23;19919;-77
2022/08/05 03:02:30;;;;;;;;;;;16.60;99.90;;;;;;6195219;23;20318;-78
2022/08/05 03:04:56;;;;;;;;;;;16.60;99.90;;;;;;6194745;23;19919;-79
2022/08/05 03:07:22;;;;;;;;;;;16.60;99.90;;;;;;6219567;23;19981;-77
2022/08/05 03:09:48;;;;;;;;;;;16.60;99.90;;;;;;6219678;23;20228;-80
2022/08/05 03:12:30;;;;;;;;;;;16.60;99.90;;;;;;6196792;23;19969;-76
2022/08/05 03:14:56;;;;;;;;;;;16.60;99.90;;;;;;6200433;23;19915;-78
2022/08/05 03:17:22;;;;;;;;;;;16.60;99.90;;;;;;6223672;23;19919;-78
2022/08/05 03:19:47;;;;;;;;;;;16.60;99.90;;;;;;6220208;23;20334;-76
2022/08/05 03:22:13;;;;;;;;;;;16.60;99.90;;;;;;6195030;23;19920;-78
2022/08/05 03:24:40;;;;;;;;;;;16.60;99.90;;;;;;6194861;23;20297;-78
2022/08/05 03:27:05;;;;;;;;;;;16.60;99.90;;;;;;6219433;23;19966;-78
2022/08/05 03:29:31;;;;;;;;;;;16.50;99.90;;;;;;6219862;23;19919;-76
2022/08/05 03:31:57;;;;;;;;;;;16.50;99.90;;;;;;6219702;23;19916;-79
2022/08/05 03:34:22;;;;;;;;;;;16.50;99.90;;;;;;6219673;23;19943;-77
2022/08/05 03:36:49;;;;;;;;;;;16.50;99.90;;;;;;6220201;23;20607;-76
2022/08/05 03:39:14;;;;;;;;;;;16.50;99.90;;;;;;6219604;23;19969;-78
2022/08/05 03:41:40;;;;;;;;;;;16.40;99.90;;;;;;6194448;23;19924;-79
2022/08/05 03:44:05;;;;;;;;;;;16.40;99.90;;;;;;6194515;23;20335;-78
2022/08/05 03:46:31;;;;;;;;;;;16.40;99.90;;;;;;6194132;23;19998;-77
2022/08/05 03:48:57;;;;;;;;;;;16.40;99.90;;;;;;6195877;23;19916;-78
2022/08/05 03:51:35;;;;;;;;;;;16.30;99.90;;;;;;6221268;23;19970;-80
2022/08/05 03:54:30;;;;;;;;;;;16.30;99.90;;;;;;6196047;23;19915;-76
2022/08/05 03:56:56;;;;;;;;;;;16.30;99.90;;;;;;6195472;23;19923;-79
2022/08/05 03:59:23;;;;;;;;;;;16.30;99.90;;;;;;6196322;23;19994;-77
2022/08/05 04:01:49;;;;;;;;;;;16.30;99.90;;;;;;6221116;23;19919;-77
2022/08/05 04:04:15;;;;;;;;;;;16.30;99.90;;;;;;6221285;23;19922;-77
2022/08/05 04:06:41;;;;;;;;;;;16.30;99.90;;;;;;6196093;23;19978;-77
2022/08/05 04:09:07;;;;;;;;;;;16.40;99.90;;;;;;6195998;23;19916;-77
2022/08/05 04:11:36;;;;;;;;;;;16.40;99.90;;;;;;6196120;23;20227;-79
2022/08/05 04:14:03;;;;;;;;;;;16.40;99.90;;;;;;6195078;23;19951;-79
2022/08/05 04:16:30;;;;;;;;;;;16.30;99.90;;;;;;6195143;23;19927;-77
2022/08/05 04:18:56;;;;;;;;;;;16.30;99.90;;;;;;6219993;23;20011;-77
2022/08/05 04:21:22;;;;;;;;;;;16.30;99.90;;;;;;6220270;23;19923;-80
2022/08/05 04:23:47;;;;;;;;;;;16.30;99.90;;;;;;6221380;23;19942;-79
2022/08/05 04:26:14;;;;;;;;;;;16.40;99.90;;;;;;6220615;23;20322;-77
2022/08/05 04:28:39;;;;;;;;;;;16.40;99.90;;;;;;6221585;23;19916;-79
2022/08/05 04:31:05;;;;;;;;;;;16.40;99.90;;;;;;6196715;23;20378;-78
2022/08/05 04:33:30;;;;;;;;;;;16.50;99.90;;;;;;6221030;23;19916;-78
2022/08/05 04:35:56;;;;;;;;;;;16.50;99.90;;;;;;6196124;22;19990;-78
2022/08/05 04:38:22;;;;;;;;;;;16.50;99.90;;;;;;6220876;23;19943;-79
2022/08/05 04:40:47;;;;;;;;;;;16.50;99.90;;;;;;6221129;23;19923;-77
2022/08/05 04:43:13;;;;;;;;;;;16.50;99.90;;;;;;6221310;23;19919;-78
2022/08/05 04:45:38;;;;;;;;;;;16.50;99.90;;;;;;6221645;23;19915;-79
2022/08/05 04:48:04;;;;;;;;;;;16.60;99.90;;;;;;6198574;23;19915;-79
2022/08/05 04:50:30;;;;;;;;;;;16.60;99.90;;;;;;6198866;23;19920;-78
2022/08/05 04:52:55;;;;;;;;;;;16.60;99.90;;;;;;6220811;23;19947;-77
2022/08/05 04:55:21;;;;;;;;;;;16.60;99.90;;;;;;6195596;23;19923;-70
2022/08/05 05:01:00;;;;;;;;;;;16.60;99.90;;;;;;6200780;23;19920;-76
2022/08/05 05:03:26;;;;;;;;;;;16.60;99.90;;;;;;6221091;23;20220;-76
2022/08/05 05:05:51;;;;;;;;;;;16.70;99.90;;;;;;6220378;22;19947;-75
2022/08/05 05:08:17;;;;;;;;;;;16.60;99.90;;;;;;6221220;23;19915;-78
2022/08/05 05:10:44;;;;;;;;;;;16.60;99.90;;;;;;6220612;23;19919;-74
2022/08/05 05:13:10;;;;;;;;;;;16.60;99.90;;;;;;6196221;23;19920;-76
2022/08/05 05:15:36;;;;;;;;;;;16.60;99.90;;;;;;6195564;23;19920;-75
2022/08/05 05:18:02;;;;;;;;;;;16.50;99.90;;;;;;6220709;23;20024;-76
2022/08/05 05:20:27;;;;;;;;;;;16.50;99.90;;;;;;6220703;23;20330;-78
2022/08/05 05:22:53;;;;;;;;;;;16.50;99.90;;;;;;6220841;23;19963;-76
2022/08/05 05:25:18;;;;;;;;;;;16.50;99.90;;;;;;6194936;23;19927;-76
2022/08/05 05:27:51;;;;;;;;;;;16.40;99.90;;;;;;6195734;23;19919;-77
2022/08/05 05:30:17;;;;;;;;;;;16.50;99.90;;;;;;6220303;23;20315;-70
2022/08/05 05:32:42;;;;;;;;;;;16.50;99.90;;;;;;6195687;23;19974;-70
2022/08/05 05:35:08;;;;;;;;;;;16.60;99.90;;;;;;6220095;23;19951;-71
2022/08/05 05:37:44;;;;;;;;;;;16.60;99.90;;;;;;6195019;23;20398;-70
2022/08/05 05:40:13;;;;;;;;;;;16.60;99.90;;;;;;6194934;23;19923;-70
2022/08/05 05:42:38;;;;;;;;;;;16.80;99.90;;;;;;6219539;23;20003;-70
2022/08/05 05:45:04;;;;;;;;;;;16.90;99.90;;;;;;6195014;23;20252;-70
2022/08/05 05:47:30;;;;;;;;;;;17.00;99.90;;;;;;6195064;23;19924;-70
2022/08/05 05:49:58;;;;;;;;;;;17.20;99.90;;;;;;6193094;23;20254;-70
2022/08/05 05:52:24;;;;;;;;;;;17.40;99.90;;;;;;6193297;23;19942;-70
2022/08/05 05:54:50;;;;;;;;;;;17.60;99.90;;;;;;6219618;23;19920;-71
2022/08/05 05:57:15;;;;;;;;;;;17.70;99.90;;;;;;6219663;23;19927;-71
2022/08/05 05:59:41;;;;;;;;;;;17.90;99.90;;;;;;6219819;23;19931;-70
2022/08/05 06:02:06;;;;;;;;;;;18.10;99.90;;;;;;6195028;23;19966;-70
2022/08/05 06:04:32;;;;;;;;;;;18.30;99.90;;;;;;6195527;23;19925;-71
2022/08/05 06:06:58;;;;;;;;;;;18.60;99.90;;;;;;6194421;23;20199;-70
2022/08/05 06:09:23;;;;;;;;;;;18.70;99.90;;;;;;6194408;23;19927;-71
2022/08/05 06:11:49;;;;;;;;;;;19.00;99.90;;;;;;6219946;23;19916;-70
2022/08/05 06:14:14;;;;;;;;;;;19.20;99.90;;;;;;6219928;23;19915;-71
2022/08/05 06:17:11;;;;;;;;;;;19.40;99.90;;;;;;6194834;23;20319;-71
2022/08/05 06:19:59;;;;;;;;;;;19.60;99.90;;;;;;6195066;23;19999;-71
2022/08/05 06:22:30;;;;;;;;;;;19.70;99.90;;;;;;6218279;23;19923;-71
2022/08/05 06:25:24;;;;;;;;;;;19.90;99.90;;;;;;6219601;23;19920;-71
2022/08/05 06:28:27;;;;;;;;;;;20.00;99.90;;;;;;6195758;23;19966;-71
2022/08/05 06:31:02;;;;;;;;;;;20.10;99.90;;;;;;6210244;23;19923;-71
2022/08/05 06:37:33;;;;;;;;;;;;;;;;;;;;;
2022/08/05 06:40:20;;;;;;;;;;;20.40;99.90;;;;;;6246418;23;19916;-71
2022/08/05 06:42:53;;;;;;;;;;;20.50;99.90;;;;;;6219342;23;19966;-72
2022/08/05 06:45:51;;;;;;;;;;;;;;;;;;;;;
2022/08/05 06:48:29;;;;;;;;;;;20.60;99.90;;;;;;6217573;23;20387;-71
2022/08/05 06:51:27;;;;;;;;;;;20.50;99.90;;;;;;6222411;23;19922;-72
2022/08/05 06:54:19;;;;;;;;;;;20.60;99.90;;;;;;6193240;23;19916;-71
2022/08/05 06:57:33;;;;;;;;;;;20.60;99.90;;;;;;6218782;23;19922;-71
2022/08/05 07:00:23;;;;;;;;;;;20.60;99.90;;;;;;6226727;23;19916;-72
2022/08/05 07:02:49;;;;;;;;;;;20.50;99.90;;;;;;6218903;23;20242;-71
2022/08/05 07:08:35;;;;;;;;;;;20.50;99.90;;;;;;6199106;23;20290;-72
2022/08/05 07:11:11;;;;;;;;;;;20.50;99.90;;;;;;6219688;23;19990;-71
2022/08/05 07:16:59;;;;;;;;;;;20.70;99.90;;;;;;6217055;23;20390;-72
2022/08/05 07:19:31;;;;;;;;;;;20.60;99.90;;;;;;6159593;23;19927;-71
2022/08/05 07:25:43;;;;;;;;;;;21.00;99.90;;;;;;6149303;23;19986;-71
2022/08/05 07:28:34;;;;;;;;;;;21.10;99.90;;;;;;6159624;23;20303;-72
2022/08/05 07:31:14;;;;;;;;;;;21.20;99.90;;;;;;6135924;23;19923;-71
2022/08/05 07:33:51;;;;;;;;;;;21.20;99.90;;;;;;6161710;23;19955;-71
2022/08/05 07:36:40;;;;;;;;;;;21.10;99.90;;;;;;6162517;23;20290;-71
2022/08/05 07:39:11;;;;;;;;;;;21.30;99.90;;;;;;6160401;23;19917;-71
2022/08/05 07:41:42;;;;;;;;;;;21.50;99.90;;;;;;6159948;23;19924;-71
2022/08/05 07:44:17;;;;;;;;;;;21.70;99.90;;;;;;6156931;23;19923;-71
2022/08/05 07:46:54;;;;;;;;;;;21.40;99.90;;;;;;6185208;23;19996;-71
2022/08/05 07:50:01;;;;;;;;;;;21.40;99.90;;;;;;6160958;23;20286;-71
2022/08/05 07:52:59;;;;;;;;;;;21.60;99.90;;;;;;6220243;23;19951;-72
2022/08/05 07:55:33;;;;;;;;;;;21.70;99.90;;;;;;6196509;23;19915;-71
2022/08/05 07:58:10;;;;;;;;;;;21.70;99.90;;;;;;6221291;23;20340;-71
2022/08/05 08:00:39;;;;;;;;;;;21.50;99.90;;;;;;6188925;23;19995;-72
2022/08/05 08:03:29;;;;;;;;;;;21.40;99.90;;;;;;6196108;23;20397;-71
2022/08/05 08:05:57;;;;;;;;;;;21.50;99.90;;;;;;6221123;23;20011;-71
2022/08/05 08:08:37;;;;;;;;;;;21.80;99.90;;;;;;6197565;23;19920;-72
2022/08/05 08:11:02;;;;;;;;;;;21.90;99.90;;;;;;6220157;23;19916;-72
2022/08/05 08:13:38;;;;;;;;;;;22.00;99.90;;;;;;6192491;23;19970;-71
2022/08/05 08:16:09;;;;;;;;;;;22.20;99.90;;;;;;6221066;23;19922;-72
2022/08/05 08:18:47;;;;;;;;;;;22.30;99.90;;;;;;6195811;23;19986;-71
2022/08/05 08:21:54;;;;;;;;;;;22.50;99.90;;;;;;6220721;23;19931;-72
2022/08/05 08:24:24;;;;;;;;;;;22.60;99.90;;;;;;6220942;22;20344;-73
2022/08/05 08:26:49;;;;;;;;;;;22.70;99.90;;;;;;6195538;23;19970;-71
2022/08/05 08:29:37;;;;;;;;;;;22.60;99.90;;;;;;6194537;23;19922;-71
2022/08/05 08:32:06;;;;;;;;;;;22.60;99.00;;;;;;6221065;23;20277;-71
2022/08/05 08:34:34;;;;;;;;;;;22.40;99.70;;;;;;6196609;23;19965;-72
2022/08/05 08:37:05;;;;;;;;;;;22.50;99.50;;;;;;6194692;23;19919;-72
2022/08/05 08:39:39;;;;;;;;;;;22.40;99.70;;;;;;6195339;23;19920;-71
2022/08/05 08:42:10;;;;;;;;;;;22.20;98.40;;;;;;6196011;23;20003;-72
2022/08/05 08:44:43;;;;;;;;;;;22.20;97.40;;;;;;6172809;23;19916;-71
2022/08/05 08:47:14;;;;;;;;;;;22.20;97.60;;;;;;6194886;23;19926;-72
2022/08/05 08:49:46;;;;;;;;;;;22.60;98.10;;;;;;6196938;23;19923;-72
2022/08/05 08:52:19;;;;;;;;;;;22.90;97.30;;;;;;6192259;23;19926;-73
2022/08/05 08:55:04;;;;;;;;;;;22.90;96.00;;;;;;6176448;23;20253;-73
2022/08/05 08:57:35;;;;;;;;;;;23.00;95.20;;;;;;6195194;23;20273;-73
2022/08/05 09:00:05;;;;;;;;;;;22.90;94.70;;;;;;6195156;23;20295;-71
2022/08/05 09:02:31;;;;;;;;;;;23.00;95.50;;;;;;6219563;23;19924;-72
2022/08/05 09:05:05;;;;;;;;;;;23.10;94.40;;;;;;6219300;23;20034;-73
2022/08/05 09:07:59;;;;;;;;;;;23.30;94.90;;;;;;6195038;23;19961;-73
2022/08/05 09:10:25;;;;;;;;;;;23.30;93.60;;;;;;6218928;23;19915;-70
2022/08/05 09:12:51;;;;;;;;;;;23.40;93.40;;;;;;6195401;23;19922;-71
2022/08/05 09:15:22;;;;;;;;;;;23.40;92.30;;;;;;6195143;23;19916;-71
2022/08/05 09:17:51;;;;;;;;;;;23.40;92.10;;;;;;6170878;23;19966;-71
2022/08/05 09:20:22;;;;;;;;;;;23.40;91.50;;;;;;6219623;23;19915;-70
2022/08/05 09:23:10;;;;;;;;;;;23.40;91.50;;;;;;6193203;23;20319;-70
2022/08/05 09:25:46;;;;;;;;;;;23.40;90.90;;;;;;6219695;23;19919;-71
2022/08/05 09:28:28;;;;;;;;;;;23.40;91.40;;;;;;6194595;23;19920;-71
2022/08/05 09:31:11;;;;;;;;;;;23.50;90.10;;;;;;6220495;23;20392;-71
2022/08/05 09:33:57;;;;;;;;;;;23.60;88.00;;;;;;6220513;23;19915;-70
2022/08/05 09:36:23;;;;;;;;;;;23.60;87.50;;;;;;6195518;22;19969;-70
2022/08/05 09:39:02;;;;;;;;;;;23.50;86.90;;;;;;6167758;23;19916;-71
2022/08/05 09:41:30;;;;;;;;;;;23.60;89.40;;;;;;6192765;23;19927;-71
2022/08/05 09:43:56;;;;;;;;;;;23.60;85.70;;;;;;6247405;23;19966;-70
2022/08/05 09:46:48;;;;;;;;;;;23.70;86.10;;;;;;6194576;22;20342;-71
2022/08/05 09:49:23;;;;;;;;;;;23.60;87.60;;;;;;6191766;23;20294;-71
2022/08/05 09:51:52;;;;;;;;;;;23.60;86.60;;;;;;6195487;23;19915;-70
2022/08/05 09:54:38;;;;;;;;;;;23.70;87.50;;;;;;6219911;23;19966;-70
2022/08/05 09:57:06;;;;;;;;;;;23.60;88.50;;;;;;6220126;23;19990;-71
2022/08/05 09:59:35;;;;;;;;;;;23.70;85.70;;;;;;6194982;23;19927;-70
2022/08/05 10:02:03;;;;;;;;;;;23.80;87.30;;;;;;6194811;23;19920;-71
2022/08/05 10:04:38;;;;;;;;;;;23.50;88.60;;;;;;6194142;23;20345;-71
2022/08/05 10:07:06;;;;;;;;;;;23.40;89.90;;;;;;6195041;23;19915;-71
2022/08/05 10:09:34;;;;;;;;;;;23.40;88.80;;;;;;6219987;23;20289;-71
2022/08/05 10:12:09;;;;;;;;;;;23.40;89.80;;;;;;6194702;23;19966;-71
2022/08/05 10:14:40;;;;;;;;;;;23.60;90.00;;;;;;6195557;23;19915;-71
2022/08/05 10:17:20;;;;;;;;;;;23.80;87.40;;;;;;6219969;23;20224;-71
2022/08/05 10:20:00;;;;;;;;;;;23.70;87.30;;;;;;6220033;23;19931;-71
2022/08/05 10:22:35;;;;;;;;;;;24.00;90.20;;;;;;6196123;23;20339;-70
2022/08/05 10:25:06;;;;;;;;;;;23.90;85.30;;;;;;6194408;23;19924;-70
2022/08/05 10:27:45;;;;;;;;;;;23.70;85.00;;;;;;6194956;23;20002;-71
2022/08/05 10:30:16;;;;;;;;;;;23.80;86.00;;;;;;6211704;23;19950;-71
2022/08/05 10:32:55;;;;;;;;;;;23.40;86.90;;;;;;6195097;23;19923;-71
2022/08/05 10:35:27;;;;;;;;;;;23.20;88.10;;;;;;6193971;23;19943;-71
2022/08/05 10:38:07;;;;;;;;;;;23.30;89.30;;;;;;6194432;23;19987;-70
2022/08/05 10:40:34;;;;;;;;;;;23.50;90.40;;;;;;6194797;23;20330;-70
2022/08/05 10:43:15;;;;;;;;;;;23.90;88.50;;;;;;6218273;23;19928;-70
2022/08/05 10:46:02;;;;;;;;;;;23.90;86.30;;;;;;6193015;23;19966;-71
2022/08/05 10:48:35;;;;;;;;;;;23.80;85.70;;;;;;6194285;23;20290;-71
2022/08/05 10:51:01;;;;;;;;;;;23.80;86.60;;;;;;6194791;23;19915;-71
2022/08/05 10:53:46;;;;;;;;;;;23.70;83.60;;;;;;6194966;23;20379;-72
2022/08/05 10:56:18;;;;;;;;;;;23.80;86.10;;;;;;6195845;23;19922;-72
2022/08/05 10:59:09;;;;;;;;;;;23.90;86.00;;;;;;6197088;23;20330;-71
2022/08/05 11:01:52;;;;;;;;;;;24.00;86.50;;;;;;6220213;23;19919;-72
2022/08/05 11:04:21;;;;;;;;;;;23.80;87.10;;;;;;6195961;23;19916;-72
2022/08/05 11:06:59;;;;;;;;;;;23.70;85.00;;;;;;6196557;22;20323;-70
2022/08/05 11:09:35;;;;;;;;;;;23.80;86.90;;;;;;6197070;23;19919;-72
2022/08/05 11:12:04;;;;;;;;;;;23.90;85.80;;;;;;6196176;23;19923;-71
2022/08/05 11:14:36;;;;;;;;;;;23.70;86.40;;;;;;6171951;23;20257;-72
2022/08/05 11:17:20;;;;;;;;;;;23.60;86.20;;;;;;6196599;23;19919;-72
2022/08/05 11:19:57;;;;;;;;;;;23.30;87.10;;;;;;6221405;23;19923;-71
2022/08/05 11:22:50;;;;;;;;;;;23.00;88.10;;;;;;6221757;23;19920;-71
2022/08/05 11:25:37;;;;;;;;;;;22.70;88.60;;;;;;6220983;23;19920;-71
2022/08/05 11:28:12;;;;;;;;;;;22.60;88.60;;;;;;6196234;23;19915;-72
2022/08/05 11:30:55;;;;;;;;;;;22.60;87.80;;;;;;6221543;23;19947;-72
2022/08/05 11:33:29;;;;;;;;;;;22.50;90.30;;;;;;6221355;23;20315;-72
2022/08/05 11:36:01;;;;;;;;;;;22.50;88.80;;;;;;6197150;23;19923;-72
2022/08/05 11:38:32;;;;;;;;;;;22.20;88.40;;;;;;6196804;23;19954;-71
2022/08/05 11:41:08;;;;;;;;;;;22.20;90.00;;;;;;6196305;23;20334;-72
2022/08/05 11:43:37;;;;;;;;;;;22.20;90.50;;;;;;6219825;23;20008;-71
2022/08/05 11:46:08;;;;;;;;;;;22.40;90.80;;;;;;6195920;23;20005;-71
2022/08/05 11:48:35;;;;;;;;;;;22.50;90.00;;;;;;6195334;23;20417;-72
2022/08/05 11:51:03;;;;;;;;;;;22.40;89.90;;;;;;6220577;23;19923;-71
2022/08/05 11:53:29;;;;;;;;;;;22.50;90.40;;;;;;6221074;23;19915;-72
2022/08/05 11:56:02;;;;;;;;;;;22.40;91.00;;;;;;6194374;23;19915;-71
2022/08/05 11:58:35;;;;;;;;;;;22.50;90.50;;;;;;6220130;23;20381;-72
2022/08/05 12:01:08;;;;;;;;;;;22.40;90.70;;;;;;6195605;23;19915;-72
2022/08/05 12:03:53;;;;;;;;;;;22.30;90.60;;;;;;6221372;23;19923;-72
2022/08/05 12:06:35;;;;;;;;;;;22.50;90.20;;;;;;6218218;23;20330;-72
2022/08/05 12:09:11;;;;;;;;;;;22.30;90.10;;;;;;6196170;23;19988;-71
2022/08/05 12:11:37;;;;;;;;;;;22.00;90.00;;;;;;6220308;23;19938;-72
2022/08/05 12:14:03;;;;;;;;;;;22.00;91.10;;;;;;6196247;23;19916;-73
2022/08/05 12:16:34;;;;;;;;;;;22.00;91.40;;;;;;6195559;23;19920;-72
2022/08/05 12:19:03;;;;;;;;;;;22.10;90.10;;;;;;6195969;23;19986;-73
2022/08/05 12:21:30;;;;;;;;;;;22.00;90.40;;;;;;6222114;23;19926;-72
2022/08/05 12:24:32;;;;;;;;;;;22.20;90.20;;;;;;6195897;23;19922;-72
2022/08/05 12:27:02;;;;;;;;;;;22.30;91.00;;;;;;6075558;23;19928;-72
2022/08/05 12:29:30;;;;;;;;;;;22.60;89.30;;;;;;6174747;23;19915;-72
2022/08/05 12:31:57;;;;;;;;;;;22.80;88.10;;;;;;6220243;23;19915;-72
2022/08/05 12:34:28;;;;;;;;;;;23.00;88.80;;;;;;6195753;23;19927;-72
2022/08/05 12:36:55;;;;;;;;;;;23.00;89.60;;;;;;6221007;22;20290;-72
2022/08/05 12:39:29;;;;;;;;;;;22.80;88.50;;;;;;6220868;23;19939;-71
2022/08/05 12:41:58;;;;;;;;;;;22.60;88.10;;;;;;6220910;23;20243;-71
2022/08/05 12:44:26;;;;;;;;;;;22.60;89.70;;;;;;6196464;23;19916;-72
2022/08/05 12:46:58;;;;;;;;;;;22.60;89.70;;;;;;6247497;22;19942;-72
2022/08/05 12:49:39;;;;;;;;;;;22.10;92.70;;;;;;6195888;23;19915;-71
2022/08/05 12:52:12;;;;;;;;;;;21.80;93.40;;;;;;6195063;23;20267;-72
2022/08/05 12:54:43;;;;;;;;;;;21.80;93.50;;;;;;6196100;23;20289;-71
2022/08/05 12:57:12;;;;;;;;;;;21.90;94.30;;;;;;6195665;23;19915;-71
2022/08/05 12:59:47;;;;;;;;;;;21.80;93.30;;;;;;6220868;23;19915;-72
2022/08/05 13:02:18;;;;;;;;;;;21.70;93.00;;;;;;6194470;23;19919;-71
2022/08/05 13:04:47;;;;;;;;;;;21.40;93.20;;;;;;6170947;23;19991;-71
2022/08/05 13:07:14;;;;;;;;;;;21.40;93.20;;;;;;6195977;23;19915;-71
2022/08/05 13:09:51;;;;;;;;;;;21.30;93.40;;;;;;6220326;23;19938;-72
2022/08/05 13:12:21;;;;;;;;;;;21.30;93.60;;;;;;6247675;23;20348;-71
2022/08/05 13:14:56;;;;;;;;;;;21.20;94.20;;;;;;6194989;23;20315;-72
2022/08/05 13:17:32;;;;;;;;;;;21.40;94.20;;;;;;6196254;23;19915;-71
2022/08/05 13:20:09;;;;;;;;;;;21.60;94.20;;;;;;6195178;23;20326;-71
2022/08/05 13:22:39;;;;;;;;;;;21.80;93.80;;;;;;6220007;23;19920;-72
2022/08/05 13:25:09;;;;;;;;;;;21.90;93.30;;;;;;6194945;23;19926;-71
2022/08/05 13:27:36;;;;;;;;;;;22.20;91.90;;;;;;6195272;23;19915;-70
2022/08/05 13:30:06;;;;;;;;;;;22.30;92.00;;;;;;6220444;23;19915;-71
2022/08/05 13:32:34;;;;;;;;;;;22.30;92.00;;;;;;6195948;23;20322;-72
2022/08/05 13:35:00;;;;;;;;;;;22.60;92.00;;;;;;6220562;23;19922;-71
2022/08/05 13:37:25;;;;;;;;;;;22.60;91.20;;;;;;6195071;23;20289;-72
2022/08/05 13:39:52;;;;;;;;;;;22.00;90.90;;;;;;6220317;23;20330;-71
2022/08/05 13:42:18;;;;;;;;;;;21.90;91.90;;;;;;6219942;23;19924;-72
2022/08/05 13:44:44;;;;;;;;;;;22.10;91.10;;;;;;6220605;23;19915;-72
2022/08/05 13:47:10;;;;;;;;;;;22.40;90.30;;;;;;6195634;23;19923;-72
2022/08/05 13:49:35;;;;;;;;;;;22.20;88.90;;;;;;6195850;23;19916;-72
2022/08/05 13:52:11;;;;;;;;;;;22.40;90.70;;;;;;6195317;23;19920;-72
2022/08/05 13:54:37;;;;;;;;;;;22.60;90.40;;;;;;6220259;23;20234;-71
2022/08/05 13:57:03;;;;;;;;;;;22.70;90.00;;;;;;6195202;22;19923;-72
2022/08/05 13:59:28;;;;;;;;;;;22.80;88.40;;;;;;6246883;23;19916;-72
2022/08/05 14:01:59;;;;;;;;;;;23.00;88.30;;;;;;6220365;23;20331;-72
2022/08/05 14:07:10;;;;;;;;;;;23.30;85.40;;;;;;6220056;23;19947;-71
2022/08/05 14:09:36;;;;;;;;;;;23.10;83.50;;;;;;6220026;23;19965;-70
2022/08/05 14:12:05;;;;;;;;;;;23.10;86.60;;;;;;6246558;23;19926;-72
2022/08/05 14:14:31;;;;;;;;;;;22.70;84.70;;;;;;6195457;23;19916;-72
2022/08/05 14:16:59;;;;;;;;;;;22.90;87.20;;;;;;6194441;22;19954;-72
2022/08/05 14:19:25;;;;;;;;;;;23.00;87.40;;;;;;6195185;23;20318;-72
2022/08/05 14:21:54;;;;;;;;;;;23.00;88.10;;;;;;6194886;23;19923;-72
2022/08/05 14:24:20;;;;;;;;;;;23.10;86.30;;;;;;6194611;23;19922;-71
2022/08/05 14:26:45;;;;;;;;;;;23.00;88.10;;;;;;6194288;22;19955;-71
2022/08/05 14:29:11;;;;;;;;;;;23.00;90.10;;;;;;6194865;23;19998;-73
2022/08/05 14:31:37;;;;;;;;;;;23.00;88.90;;;;;;6219773;23;19915;-73
2022/08/05 14:34:02;;;;;;;;;;;22.60;89.70;;;;;;6219818;23;19916;-72
2022/08/05 14:36:28;;;;;;;;;;;22.90;90.00;;;;;;6194541;23;19917;-72
2022/08/05 14:38:56;;;;;;;;;;;23.20;87.20;;;;;;6170939;23;20009;-71
2022/08/05 14:41:22;;;;;;;;;;;23.50;89.10;;;;;;6169942;23;19920;-72
2022/08/05 14:43:53;;;;;;;;;;;23.50;83.20;;;;;;6219731;23;19919;-72
2022/08/05 14:46:22;;;;;;;;;;;23.20;83.30;;;;;;6194616;23;20373;-72
2022/08/05 14:48:47;;;;;;;;;;;23.20;86.20;;;;;;6219909;23;19938;-73
2022/08/05 14:51:13;;;;;;;;;;;23.10;81.80;;;;;;6219874;23;20334;-73
2022/08/05 14:53:38;;;;;;;;;;;23.10;84.40;;;;;;6219754;23;20326;-72
2022/08/05 14:56:04;;;;;;;;;;;23.30;83.20;;;;;;6220101;23;19966;-72
2022/08/05 14:58:30;;;;;;;;;;;23.80;82.00;;;;;;6194631;23;20396;-72
2022/08/05 15:00:59;;;;;;;;;;;24.00;79.60;;;;;;6194836;23;19926;-73